createdAt,value
2019-04-07T00:01:38.988Z,77.24
2019-04-07T00:04:05.288Z,77.28
2019-04-07T00:06:31.661Z,78.23
2019-04-07T00:08:57.743Z,78.01
2019-04-07T00:11:23.593Z,78.12
2019-04-07T00:13:49.970Z,77.75
2019-04-07T00:16:15.867Z,77.91
2019-04-07T00:18:41.725Z,78.02
2019-04-07T00:21:07.548Z,78.07
2019-04-07T00:23:33.569Z,78.61
2019-04-07T00:26:00.159Z,78.75
2019-04-07T00:28:26.104Z,79.38
2019-04-07T00:30:51.945Z,79.38
2019-04-07T00:33:18.159Z,79.80
2019-04-07T00:35:44.619Z,79.85
2019-04-07T00:38:10.497Z,79.98
2019-04-07T00:40:37.070Z,80.53
2019-04-07T00:43:03.415Z,80.81
2019-04-07T00:45:29.501Z,80.34
2019-04-07T00:47:55.915Z,80.81
2019-04-07T00:50:21.991Z,80.27
2019-04-07T00:52:48.035Z,80.83
2019-04-07T00:55:14.219Z,80.83
2019-04-07T00:57:40.725Z,80.82
2019-04-07T01:00:08.653Z,80.82
2019-04-07T01:02:34.627Z,80.50
2019-04-07T01:05:00.460Z,81.21
2019-04-07T01:07:26.656Z,81.09
2019-04-07T01:09:53.165Z,81.61
2019-04-07T01:12:19.309Z,82.25
2019-04-07T01:14:45.184Z,82.25
2019-04-07T01:17:11.532Z,82.46
2019-04-07T01:19:38.111Z,83.36
2019-04-07T01:22:04.058Z,83.00
2019-04-07T01:24:29.917Z,83.08
2019-04-07T01:26:55.876Z,83.84
2019-04-07T01:29:21.717Z,83.88
2019-04-07T01:31:47.533Z,83.81
2019-04-07T01:34:13.490Z,84.48
2019-04-07T01:36:39.337Z,84.08
2019-04-07T01:39:07.680Z,84.76
2019-04-07T01:41:35.613Z,84.61
2019-04-07T01:44:06.108Z,84.61
2019-04-07T01:46:37.067Z,85.15
2019-04-07T01:49:04.958Z,85.14
2019-04-07T01:51:42.220Z,85.37
2019-04-07T01:54:28.348Z,85.62
2019-04-07T01:57:13.470Z,86.58
2019-04-07T01:59:54.039Z,86.58
2019-04-07T02:02:31.095Z,86.64
2019-04-07T02:05:01.929Z,86.17
2019-04-07T02:07:35.905Z,86.17
2019-04-07T02:10:21.467Z,86.32
2019-04-07T02:13:01.176Z,86.32
2019-04-07T02:15:31.916Z,86.88
2019-04-07T02:18:11.556Z,86.69
2019-04-07T02:20:57.885Z,87.10
2019-04-07T02:23:34.380Z,86.97
2019-04-07T02:26:04.900Z,86.97
2019-04-07T02:28:35.793Z,86.58
2019-04-07T02:31:06.561Z,86.74
2019-04-07T02:33:43.829Z,87.05
2019-04-07T02:36:31.306Z,86.96
2019-04-07T02:39:09.898Z,86.96
2019-04-07T02:41:53.667Z,86.69
2019-04-07T02:44:22.047Z,87.36
2019-04-07T02:46:49.863Z,87.19
2019-04-07T02:49:20.629Z,86.75
2019-04-07T02:51:51.125Z,86.75
2019-04-07T02:54:22.680Z,86.14
2019-04-07T02:56:54.291Z,86.14
2019-04-07T02:59:41.069Z,86.67
2019-04-07T03:02:12.710Z,86.60
2019-04-07T03:04:57.068Z,86.36
2019-04-07T03:07:39.685Z,86.27
2019-04-07T03:10:17.081Z,86.32
2019-04-07T03:12:48.609Z,86.23
2019-04-07T03:15:17.121Z,85.57
2019-04-07T03:18:03.170Z,85.46
2019-04-07T03:20:31.130Z,84.98
2019-04-07T03:23:02.168Z,85.38
2019-04-07T03:25:46.873Z,85.61
2019-04-07T03:28:14.612Z,85.61
2019-04-07T03:30:47.208Z,86.14
2019-04-07T03:33:26.025Z,86.14
2019-04-07T03:36:01.048Z,86.41
2019-04-07T03:38:27.392Z,87.01
2019-04-07T03:40:55.250Z,87.22
2019-04-07T03:43:38.019Z,88.21
2019-04-07T03:46:06.107Z,88.21
2019-04-07T03:48:43.469Z,89.51
2019-04-07T03:51:14.939Z,89.95
2019-04-07T03:53:48.969Z,89.95
2019-04-07T03:56:16.699Z,90.76
2019-04-07T03:58:53.757Z,91.18
2019-04-07T04:01:22.229Z,92.13
2019-04-07T04:04:07.330Z,92.07
2019-04-07T04:06:50.275Z,92.07
2019-04-07T04:09:22.237Z,92.90
2019-04-07T04:12:01.924Z,94.35
2019-04-07T04:14:41.868Z,94.27
2019-04-07T04:17:08.250Z,95.92
2019-04-07T04:19:34.851Z,95.92
2019-04-07T04:22:00.706Z,96.77
2019-04-07T04:24:26.706Z,96.69
2019-04-07T04:26:53.651Z,97.43
2019-04-07T04:29:20.158Z,97.57
2019-04-07T04:31:47.257Z,98.61
2019-04-07T04:34:13.938Z,98.61
2019-04-07T04:36:40.451Z,99.21
2019-04-07T04:39:06.643Z,98.92
2019-04-07T04:41:32.969Z,98.67
2019-04-07T04:44:00.421Z,98.67
2019-04-07T04:46:26.357Z,99.13
2019-04-07T04:48:52.506Z,98.76
2019-04-07T04:51:18.430Z,98.38
2019-04-07T04:53:44.741Z,98.23
2019-04-07T04:56:11.335Z,97.53
2019-04-07T04:58:37.900Z,97.11
2019-04-07T05:01:04.491Z,96.85
2019-04-07T05:03:30.490Z,96.90
2019-04-07T05:05:56.424Z,96.90
2019-04-07T05:08:22.254Z,97.45
2019-04-07T05:10:48.266Z,96.91
2019-04-07T05:13:14.165Z,96.71
2019-04-07T05:15:40.038Z,96.63
2019-04-07T05:18:06.453Z,96.48
2019-04-07T05:20:32.300Z,96.74
2019-04-07T05:22:58.624Z,96.24
2019-04-07T05:25:24.960Z,94.67
2019-04-07T05:27:50.859Z,94.67
2019-04-07T05:30:16.868Z,95.22
2019-04-07T05:32:43.187Z,94.14
2019-04-07T05:35:09.172Z,92.29
2019-04-07T05:37:35.028Z,92.29
2019-04-07T05:40:02.934Z,91.36
2019-04-07T05:42:28.884Z,89.42
2019-04-07T05:44:55.167Z,89.42
2019-04-07T05:47:21.278Z,88.83
2019-04-07T05:49:47.713Z,87.88
2019-04-07T05:52:13.970Z,88.05
2019-04-07T05:54:40.411Z,88.05
2019-04-07T05:57:06.243Z,86.78
2019-04-07T05:59:32.109Z,86.78
2019-04-07T06:02:00.725Z,86.38
2019-04-07T06:04:26.057Z,85.46
2019-04-07T06:06:54.998Z,85.26
2019-04-07T06:09:20.787Z,84.31
2019-04-07T06:11:46.965Z,84.31
2019-04-07T06:14:15.091Z,82.06
2019-04-07T06:16:41.671Z,82.83
2019-04-07T06:19:08.096Z,82.32
2019-04-07T06:21:34.851Z,81.24
2019-04-07T06:24:00.838Z,81.24
2019-04-07T06:26:26.668Z,81.83
2019-04-07T06:28:57.390Z,80.35
2019-04-07T06:31:21.557Z,79.91
2019-04-07T06:33:47.979Z,79.91
2019-04-07T06:36:17.543Z,78.62
2019-04-07T06:38:46.501Z,78.65
2019-04-07T06:41:09.343Z,78.51
2019-04-07T06:43:40.025Z,78.51
2019-04-07T06:46:26.088Z,78.26
2019-04-07T06:49:11.293Z,77.90
2019-04-07T06:51:50.198Z,77.63
2019-04-07T06:54:20.513Z,77.63
2019-04-07T06:56:51.178Z,76.61
2019-04-07T06:59:36.093Z,76.09
2019-04-07T07:02:20.814Z,75.35
2019-04-07T07:04:48.637Z,75.21
2019-04-07T07:07:22.684Z,75.21
2019-04-07T07:09:54.798Z,75.95
2019-04-07T07:12:30.932Z,75.95
2019-04-07T07:15:09.154Z,76.06
2019-04-07T07:17:43.083Z,76.06
2019-04-07T07:20:11.269Z,76.17
2019-04-07T07:22:53.994Z,75.10
2019-04-07T07:25:20.429Z,74.68
2019-04-07T07:27:46.321Z,75.28
2019-04-07T07:30:12.249Z,75.28
2019-04-07T07:32:38.942Z,74.59
2019-04-07T07:35:05.585Z,73.14
2019-04-07T07:37:32.054Z,71.93
2019-04-07T07:39:57.971Z,72.63
2019-04-07T07:42:24.384Z,71.74
2019-04-07T07:44:50.417Z,70.08
2019-04-07T07:47:17.631Z,68.96
2019-04-07T07:49:44.391Z,70.09
2019-04-07T07:52:10.422Z,68.47
2019-04-07T07:54:36.792Z,67.10
2019-04-07T07:57:02.822Z,67.41
2019-04-07T07:59:33.551Z,67.42
2019-04-07T08:01:56.503Z,66.78
2019-04-07T08:04:24.908Z,66.78
2019-04-07T08:06:50.229Z,66.13
2019-04-07T08:09:21.436Z,66.13
2019-04-07T08:11:44.537Z,66.92
2019-04-07T08:14:15.162Z,66.72
2019-04-07T08:16:39.007Z,66.21
2019-04-07T08:19:08.470Z,65.48
2019-04-07T08:21:33.699Z,65.32
2019-04-07T08:24:01.347Z,65.80
2019-04-07T08:26:27.839Z,65.14
2019-04-07T08:28:54.695Z,64.84
2019-04-07T08:31:21.555Z,64.75
2019-04-07T08:33:50.308Z,64.28
2019-04-07T08:36:15.336Z,65.29
2019-04-07T08:38:41.215Z,64.61
2019-04-07T08:41:10.175Z,64.18
2019-04-07T08:43:35.171Z,63.33
2019-04-07T08:46:04.374Z,64.27
2019-04-07T08:48:28.969Z,64.02
2019-04-07T08:50:57.270Z,62.56
2019-04-07T08:53:22.955Z,63.39
2019-04-07T08:55:50.059Z,61.83
2019-04-07T08:58:25.117Z,60.06
2019-04-07T09:00:49.290Z,58.65
2019-04-07T09:03:16.389Z,57.94
2019-04-07T09:05:43.203Z,58.16
2019-04-07T09:08:09.036Z,58.83
2019-04-07T09:10:42.982Z,57.75
2019-04-07T09:13:10.137Z,57.80
2019-04-07T09:15:45.297Z,56.68
2019-04-07T09:18:17.952Z,56.08
2019-04-07T09:20:48.479Z,55.71
2019-04-07T09:23:28.326Z,55.51
2019-04-07T09:25:57.245Z,56.51
2019-04-07T09:28:25.050Z,56.02
2019-04-07T09:31:09.185Z,56.42
2019-04-07T09:33:53.961Z,55.68
2019-04-07T09:36:24.678Z,55.96
2019-04-07T09:38:52.525Z,56.36
2019-04-07T09:41:32.170Z,54.61
2019-04-07T09:44:03.911Z,54.61
2019-04-07T09:46:41.904Z,54.66
2019-04-07T09:49:24.767Z,53.56
2019-04-07T09:51:58.894Z,54.08
2019-04-07T09:54:26.663Z,54.25
2019-04-07T09:57:10.878Z,53.48
2019-04-07T09:59:48.579Z,53.39
2019-04-07T10:02:23.953Z,52.60
2019-04-07T10:04:51.783Z,51.60
2019-04-07T10:07:28.459Z,52.63
2019-04-07T10:10:08.389Z,52.66
2019-04-07T10:12:28.791Z,52.53
2019-04-07T10:15:04.449Z,52.72
2019-04-07T10:17:49.496Z,53.08
2019-04-07T10:20:23.139Z,53.08
2019-04-07T10:23:07.977Z,50.52
2019-04-07T10:25:39.210Z,51.89
2019-04-07T10:28:13.750Z,52.81
2019-04-07T10:30:44.623Z,52.01
2019-04-07T10:33:15.743Z,52.77
2019-04-07T10:35:59.993Z,55.05
2019-04-07T10:38:30.475Z,55.45
2019-04-07T10:41:07.340Z,53.71
2019-04-07T10:43:52.504Z,53.37
2019-04-07T10:46:20.435Z,53.98
2019-04-07T10:48:51.146Z,51.41
2019-04-07T10:51:19.686Z,51.65
2019-04-07T10:53:51.099Z,51.03
2019-04-07T10:56:25.489Z,52.10
2019-04-07T10:58:53.990Z,51.35
2019-04-07T11:01:25.539Z,50.32
2019-04-07T11:03:59.503Z,50.16
2019-04-07T11:06:42.109Z,50.17
2019-04-07T11:09:13.212Z,49.57
2019-04-07T11:11:41.212Z,49.33
2019-04-07T11:14:09.738Z,50.07
2019-04-07T11:16:52.567Z,49.70
2019-04-07T11:19:38.601Z,50.39
2019-04-07T11:22:10.520Z,49.04
2019-04-07T11:24:41.442Z,48.74
2019-04-07T11:27:15.173Z,47.81
2019-04-07T11:29:45.743Z,47.42
2019-04-07T11:32:32.336Z,47.88
2019-04-07T11:35:00.205Z,47.59
2019-04-07T11:37:33.827Z,46.85
2019-04-07T11:40:02.231Z,47.16
2019-04-07T11:42:30.649Z,47.08
2019-04-07T11:45:05.020Z,46.83
2019-04-07T11:47:38.582Z,47.11
2019-04-07T11:50:13.492Z,45.52
2019-04-07T11:52:50.530Z,45.52
2019-04-07T11:55:34.615Z,44.77
2019-04-07T11:58:26.018Z,45.62
2019-04-07T12:00:55.910Z,47.47
2019-04-07T12:03:29.940Z,48.28
2019-04-07T12:06:06.574Z,49.56
2019-04-07T12:08:40.504Z,49.76
2019-04-07T12:11:15.443Z,50.57
2019-04-07T12:13:46.762Z,51.86
2019-04-07T12:16:24.784Z,51.45
2019-04-07T12:19:05.565Z,52.10
2019-04-07T12:21:39.125Z,52.21
2019-04-07T12:24:09.446Z,51.27
2019-04-07T12:26:54.988Z,51.37
2019-04-07T12:29:35.279Z,51.58
2019-04-07T12:32:05.844Z,49.78
2019-04-07T12:34:50.897Z,46.99
2019-04-07T12:37:39.245Z,46.51
2019-04-07T12:40:07.593Z,45.96
2019-04-07T12:42:54.488Z,44.42
2019-04-07T12:45:38.771Z,44.09
2019-04-07T12:48:06.573Z,45.32
2019-04-07T12:50:35.485Z,46.50
2019-04-07T12:53:04.866Z,45.41
2019-04-07T12:55:56.001Z,45.75
2019-04-07T12:58:25.533Z,45.94
2019-04-07T13:00:59.924Z,46.22
2019-04-07T13:03:44.068Z,47.23
2019-04-07T13:06:14.655Z,46.88
2019-04-07T13:08:45.088Z,47.98
2019-04-07T13:11:26.552Z,46.76
2019-04-07T13:13:54.542Z,47.58
2019-04-07T13:16:26.330Z,47.84
2019-04-07T13:18:57.309Z,49.08
2019-04-07T13:21:30.853Z,49.76
2019-04-07T13:24:03.769Z,50.32
2019-04-07T13:26:37.435Z,52.10
2019-04-07T13:29:05.365Z,52.56
2019-04-07T13:31:33.190Z,51.33
2019-04-07T13:34:18.011Z,51.24
2019-04-07T13:36:46.317Z,50.35
2019-04-07T13:39:19.884Z,50.79
2019-04-07T13:42:05.848Z,50.54
2019-04-07T13:44:49.644Z,50.41
2019-04-07T13:47:34.111Z,50.09
2019-04-07T13:50:02.611Z,49.60
2019-04-07T13:52:36.881Z,50.44
2019-04-07T13:55:14.147Z,49.89
2019-04-07T13:57:57.743Z,50.23
2019-04-07T14:00:26.399Z,50.48
2019-04-07T14:03:11.297Z,50.63
2019-04-07T14:05:43.020Z,49.73
2019-04-07T14:08:11.401Z,49.85
2019-04-07T14:10:57.868Z,49.88
2019-04-07T14:13:41.882Z,50.53
2019-04-07T14:16:12.816Z,51.02
2019-04-07T14:18:43.763Z,52.18
2019-04-07T14:21:16.788Z,53.10
2019-04-07T14:23:44.717Z,52.75
2019-04-07T14:26:15.737Z,53.04
2019-04-07T14:28:50.081Z,53.54
2019-04-07T14:31:23.615Z,53.53
2019-04-07T14:34:07.997Z,52.64
2019-04-07T14:36:54.611Z,52.42
2019-04-07T14:39:22.412Z,52.22
2019-04-07T14:42:01.009Z,51.97
2019-04-07T14:44:29.283Z,52.13
2019-04-07T14:47:03.298Z,51.85
2019-04-07T14:49:39.837Z,52.45
2019-04-07T14:52:07.675Z,51.99
2019-04-07T14:54:38.595Z,52.57
2019-04-07T14:57:10.390Z,51.86
2019-04-07T14:59:47.383Z,52.64
2019-04-07T15:02:15.595Z,52.63
2019-04-07T15:05:01.296Z,53.49
2019-04-07T15:07:34.789Z,53.49
2019-04-07T15:10:12.387Z,52.73
2019-04-07T15:12:41.408Z,53.42
2019-04-07T15:15:11.344Z,53.31
2019-04-07T15:17:36.954Z,53.44
2019-04-07T15:20:07.469Z,53.63
2019-04-07T15:22:33.535Z,53.81
2019-04-07T15:25:00.136Z,54.10
2019-04-07T15:27:27.212Z,54.37
2019-04-07T15:29:53.137Z,54.07
2019-04-07T15:32:21.184Z,54.86
2019-04-07T15:34:46.870Z,55.02
2019-04-07T15:37:13.152Z,55.73
2019-04-07T15:39:39.618Z,55.56
2019-04-07T15:42:07.980Z,54.94
2019-04-07T15:44:33.558Z,55.22
2019-04-07T15:46:59.404Z,55.66
2019-04-07T15:49:27.984Z,55.80
2019-04-07T15:51:53.990Z,55.74
2019-04-07T15:54:22.982Z,55.26
2019-04-07T15:56:49.240Z,54.85
2019-04-07T15:59:17.601Z,55.17
2019-04-07T16:01:44.080Z,55.19
2019-04-07T16:04:09.967Z,55.16
2019-04-07T16:06:37.006Z,55.53
2019-04-07T16:09:10.719Z,55.37
2019-04-07T16:11:33.834Z,55.79
2019-04-07T16:13:59.735Z,56.09
2019-04-07T16:16:28.448Z,56.08
2019-04-07T16:18:53.401Z,56.04
2019-04-07T16:21:19.521Z,56.15
2019-04-07T16:23:49.017Z,56.06
2019-04-07T16:26:13.275Z,56.06
2019-04-07T16:28:43.253Z,56.68
2019-04-07T16:31:07.724Z,56.86
2019-04-07T16:33:35.971Z,57.53
2019-04-07T16:36:02.098Z,56.60
2019-04-07T16:38:29.546Z,56.83
2019-04-07T16:40:56.011Z,57.14
2019-04-07T16:43:22.119Z,57.16
2019-04-07T16:45:48.564Z,57.08
2019-04-07T16:48:14.401Z,57.22
2019-04-07T16:50:40.301Z,57.97
2019-04-07T16:53:07.823Z,58.28
2019-04-07T16:55:37.238Z,58.07
2019-04-07T16:58:03.903Z,58.16
2019-04-07T17:00:29.859Z,58.57
2019-04-07T17:02:55.838Z,58.24
2019-04-07T17:05:24.329Z,58.86
2019-04-07T17:07:50.817Z,58.30
2019-04-07T17:10:16.819Z,58.75
2019-04-07T17:12:42.803Z,59.28
2019-04-07T17:15:08.830Z,58.96
2019-04-07T17:17:35.683Z,59.12
2019-04-07T17:20:06.834Z,59.51
2019-04-07T17:22:33.688Z,59.38
2019-04-07T17:25:02.631Z,60.34
2019-04-07T17:27:27.600Z,59.79
2019-04-07T17:29:55.297Z,59.86
2019-04-07T17:32:21.849Z,60.35
2019-04-07T17:34:47.889Z,60.70
2019-04-07T17:37:14.058Z,60.46
2019-04-07T17:39:51.428Z,60.53
2019-04-07T17:42:19.745Z,61.16
2019-04-07T17:44:49.194Z,60.96
2019-04-07T17:47:23.351Z,60.16
2019-04-07T17:49:57.617Z,61.36
2019-04-07T17:52:30.386Z,61.52
2019-04-07T17:55:04.261Z,61.35
2019-04-07T17:57:44.990Z,61.89
2019-04-07T18:00:28.040Z,61.75
2019-04-07T18:03:04.845Z,62.19
2019-04-07T18:05:40.721Z,62.56
2019-04-07T18:08:17.884Z,62.66
2019-04-07T18:10:59.757Z,63.09
2019-04-07T18:13:44.072Z,63.15
2019-04-07T18:16:09.710Z,63.40
2019-04-07T18:18:38.805Z,63.92
2019-04-07T18:21:13.196Z,64.00
2019-04-07T18:23:58.747Z,64.43
2019-04-07T18:26:40.286Z,64.95
2019-04-07T18:29:13.602Z,65.50
2019-04-07T18:31:50.907Z,65.48
2019-04-07T18:34:23.853Z,65.67
2019-04-07T18:36:49.202Z,66.26
2019-04-07T18:39:26.207Z,66.46
2019-04-07T18:42:12.589Z,66.62
2019-04-07T18:44:41.309Z,67.15
2019-04-07T18:47:15.420Z,67.47
2019-04-07T18:49:55.130Z,67.66
2019-04-07T18:52:25.723Z,67.79
2019-04-07T18:54:55.681Z,67.82
2019-04-07T18:57:29.468Z,68.46
2019-04-07T19:00:15.084Z,68.62
2019-04-07T19:02:46.465Z,68.84
2019-04-07T19:05:34.226Z,69.11
2019-04-07T19:08:04.683Z,69.72
2019-04-07T19:10:38.947Z,69.80
2019-04-07T19:13:27.264Z,70.06
2019-04-07T19:15:55.443Z,69.85
2019-04-07T19:18:27.110Z,70.52
2019-04-07T19:21:13.823Z,70.72
2019-04-07T19:23:41.775Z,70.89
2019-04-07T19:26:18.060Z,71.10
2019-04-07T19:28:47.686Z,71.29
2019-04-07T19:31:19.471Z,71.38
2019-04-07T19:34:03.384Z,72.10
2019-04-07T19:36:44.372Z,71.89
2019-04-07T19:39:26.993Z,71.66
2019-04-07T19:42:00.940Z,73.09
2019-04-07T19:44:49.707Z,74.09
2019-04-07T19:47:31.270Z,75.07
2019-04-07T19:50:10.166Z,75.46
2019-04-07T19:52:47.674Z,77.76
2019-04-07T19:55:22.628Z,77.55
2019-04-07T19:57:58.010Z,77.00
2019-04-07T20:00:31.896Z,77.71
2019-04-07T20:03:16.077Z,78.55
2019-04-07T20:05:43.919Z,79.11
2019-04-07T20:08:32.442Z,80.03
2019-04-07T20:11:04.122Z,80.73
2019-04-07T20:13:40.629Z,82.11
2019-04-07T20:16:24.187Z,82.11
2019-04-07T20:18:59.387Z,82.90
2019-04-07T20:21:38.220Z,82.57
2019-04-07T20:24:09.291Z,83.21
2019-04-07T20:26:40.518Z,82.50
2019-04-07T20:29:12.018Z,83.04
2019-04-07T20:31:53.366Z,84.62
2019-04-07T20:34:40.135Z,84.62
2019-04-07T20:37:12.716Z,85.66
2019-04-07T20:39:43.663Z,85.47
2019-04-07T20:42:15.887Z,87.01
2019-04-07T20:44:41.154Z,86.48
2019-04-07T20:47:08.887Z,85.72
2019-04-07T20:49:41.154Z,86.42
2019-04-07T20:52:14.212Z,85.45
2019-04-07T20:54:48.738Z,85.49
2019-04-07T20:57:23.758Z,85.32
2019-04-07T21:00:06.955Z,85.67
2019-04-07T21:02:36.316Z,86.03
2019-04-07T21:05:08.423Z,87.39
2019-04-07T21:07:39.667Z,87.89
2019-04-07T21:10:11.191Z,87.89
2019-04-07T21:12:51.218Z,87.29
2019-04-07T21:15:26.032Z,86.40
2019-04-07T21:17:51.187Z,86.40
2019-04-07T21:20:30.991Z,86.62
2019-04-07T21:22:59.542Z,86.37
2019-04-07T21:25:42.327Z,88.36
2019-04-07T21:28:10.546Z,87.40
2019-04-07T21:30:43.015Z,87.40
2019-04-07T21:33:28.208Z,88.42
2019-04-07T21:36:04.336Z,88.24
2019-04-07T21:38:37.776Z,88.24
2019-04-07T21:41:06.087Z,88.25
2019-04-07T21:43:42.604Z,87.74
2019-04-07T21:46:13.366Z,88.23
2019-04-07T21:48:50.730Z,88.91
2019-04-07T21:51:21.599Z,88.86
2019-04-07T21:53:55.226Z,88.19
2019-04-07T21:56:47.780Z,88.19
2019-04-07T21:59:18.999Z,88.65
2019-04-07T22:01:53.760Z,89.59
2019-04-07T22:04:34.075Z,88.82
2019-04-07T22:07:18.245Z,88.82
2019-04-07T22:09:49.403Z,88.71
2019-04-07T22:12:14.523Z,89.15
2019-04-07T22:14:42.896Z,89.65
2019-04-07T22:17:08.338Z,89.84
2019-04-07T22:19:34.181Z,89.95
2019-04-07T22:22:00.364Z,90.80
2019-04-07T22:24:26.378Z,93.12
2019-04-07T22:26:52.930Z,93.12
2019-04-07T22:29:18.972Z,92.00
2019-04-07T22:31:49.730Z,92.00
2019-04-07T22:34:16.421Z,91.35
2019-04-07T22:36:45.490Z,91.12
2019-04-07T22:39:10.228Z,91.12
2019-04-07T22:41:37.002Z,90.77
2019-04-07T22:44:03.937Z,91.09
2019-04-07T22:46:29.765Z,91.46
2019-04-07T22:48:58.343Z,91.87
2019-04-07T22:51:23.360Z,90.53
2019-04-07T22:53:49.649Z,89.42
2019-04-07T22:56:16.077Z,88.51
2019-04-07T22:58:42.320Z,88.52
2019-04-07T23:01:09.024Z,88.72
2019-04-07T23:03:34.948Z,88.72
2019-04-07T23:06:01.044Z,88.66
2019-04-07T23:08:26.931Z,88.90
2019-04-07T23:10:52.846Z,88.97
2019-04-07T23:13:19.434Z,89.17
2019-04-07T23:15:46.442Z,88.90
2019-04-07T23:18:13.703Z,89.61
2019-04-07T23:20:39.732Z,89.61
2019-04-07T23:23:05.619Z,90.85
2019-04-07T23:25:32.281Z,90.14
2019-04-07T23:27:58.460Z,90.43
2019-04-07T23:30:26.379Z,90.17
2019-04-07T23:32:52.333Z,89.09
2019-04-07T23:35:18.170Z,89.54
2019-04-07T23:37:44.043Z,92.02
2019-04-07T23:40:10.659Z,93.30
2019-04-07T23:42:36.581Z,94.22
2019-04-07T23:45:06.597Z,95.09
2019-04-07T23:47:32.461Z,94.98
2019-04-07T23:49:58.686Z,94.47
2019-04-07T23:52:25.132Z,93.04
2019-04-07T23:54:51.027Z,92.87
2019-04-07T23:57:17.725Z,92.87
2019-04-07T23:59:44.305Z,93.47
